sensor_id;sensor_type;location;lat;lon;timestamp;P1;durP1;ratioP1;P2;durP2;ratioP2
33760;SDS011;20084;47.912;19.044;2023-04-06T00:01:41;5.53;;;3.05;;
33760;SDS011;20084;47.912;19.044;2023-04-06T00:04:06;4.60;;;2.80;;
33760;SDS011;20084;47.912;19.044;2023-04-06T00:06:32;6.28;;;2.70;;
33760;SDS011;20084;47.912;19.044;2023-04-06T00:08:59;5.75;;;2.88;;
33760;SDS011;20084;47.912;19.044;2023-04-06T00:11:25;5.95;;;3.38;;
33760;SDS011;20084;47.912;19.044;2023-04-06T00:13:51;3.95;;;2.97;;
33760;SDS011;20084;47.912;19.044;2023-04-06T00:16:17;4.72;;;3.42;;
33760;SDS011;20084;47.912;19.044;2023-04-06T00:18:43;5.82;;;3.45;;
33760;SDS011;20084;47.912;19.044;2023-04-06T00:21:11;8.52;;;3.80;;
33760;SDS011;20084;47.912;19.044;2023-04-06T00:23:38;6.25;;;3.25;;
33760;SDS011;20084;47.912;19.044;2023-04-06T00:26:04;4.65;;;2.95;;
33760;SDS011;20084;47.912;19.044;2023-04-06T00:28:30;4.78;;;2.90;;
33760;SDS011;20084;47.912;19.044;2023-04-06T00:30:55;4.97;;;2.88;;
33760;SDS011;20084;47.912;19.044;2023-04-06T00:33:21;6.82;;;3.28;;
33760;SDS011;20084;47.912;19.044;2023-04-06T00:35:48;5.45;;;2.63;;
33760;SDS011;20084;47.912;19.044;2023-04-06T00:38:16;10.60;;;3.50;;
33760;SDS011;20084;47.912;19.044;2023-04-06T00:40:42;4.28;;;2.70;;
33760;SDS011;20084;47.912;19.044;2023-04-06T00:43:09;8.68;;;4.20;;
33760;SDS011;20084;47.912;19.044;2023-04-06T00:45:36;9.75;;;4.25;;
33760;SDS011;20084;47.912;19.044;2023-04-06T00:48:06;5.35;;;3.45;;
33760;SDS011;20084;47.912;19.044;2023-04-06T00:50:33;7.55;;;3.67;;
33760;SDS011;20084;47.912;19.044;2023-04-06T00:52:59;5.90;;;3.65;;
33760;SDS011;20084;47.912;19.044;2023-04-06T00:55:28;6.90;;;3.35;;
33760;SDS011;20084;47.912;19.044;2023-04-06T00:57:55;7.40;;;4.32;;
33760;SDS011;20084;47.912;19.044;2023-04-06T01:00:23;8.48;;;4.28;;
33760;SDS011;20084;47.912;19.044;2023-04-06T01:02:49;6.40;;;3.67;;
33760;SDS011;20084;47.912;19.044;2023-04-06T01:05:15;7.43;;;2.97;;
33760;SDS011;20084;47.912;19.044;2023-04-06T01:07:41;10.57;;;5.05;;
33760;SDS011;20084;47.912;19.044;2023-04-06T01:10:06;5.78;;;4.20;;
33760;SDS011;20084;47.912;19.044;2023-04-06T01:12:32;14.65;;;6.53;;
33760;SDS011;20084;47.912;19.044;2023-04-06T01:14:58;18.55;;;8.95;;
33760;SDS011;20084;47.912;19.044;2023-04-06T01:17:24;16.88;;;8.23;;
33760;SDS011;20084;47.912;19.044;2023-04-06T01:19:50;11.48;;;5.47;;
33760;SDS011;20084;47.912;19.044;2023-04-06T01:22:18;21.20;;;9.88;;
33760;SDS011;20084;47.912;19.044;2023-04-06T01:24:45;10.50;;;5.35;;
33760;SDS011;20084;47.912;19.044;2023-04-06T01:27:11;16.88;;;6.00;;
33760;SDS011;20084;47.912;19.044;2023-04-06T01:29:37;12.02;;;4.50;;
33760;SDS011;20084;47.912;19.044;2023-04-06T01:32:06;11.65;;;6.13;;
33760;SDS011;20084;47.912;19.044;2023-04-06T01:34:31;7.55;;;4.72;;
33760;SDS011;20084;47.912;19.044;2023-04-06T01:36:57;6.55;;;3.65;;
33760;SDS011;20084;47.912;19.044;2023-04-06T01:39:22;6.45;;;4.05;;
33760;SDS011;20084;47.912;19.044;2023-04-06T01:41:48;7.90;;;4.38;;
33760;SDS011;20084;47.912;19.044;2023-04-06T01:44:17;7.25;;;4.47;;
33760;SDS011;20084;47.912;19.044;2023-04-06T01:46:44;13.65;;;5.45;;
33760;SDS011;20084;47.912;19.044;2023-04-06T01:49:10;8.02;;;4.57;;
33760;SDS011;20084;47.912;19.044;2023-04-06T01:51:36;8.32;;;4.28;;
33760;SDS011;20084;47.912;19.044;2023-04-06T01:54:02;6.30;;;4.32;;
33760;SDS011;20084;47.912;19.044;2023-04-06T01:56:28;7.70;;;4.53;;
33760;SDS011;20084;47.912;19.044;2023-04-06T01:58:53;8.45;;;4.32;;
33760;SDS011;20084;47.912;19.044;2023-04-06T02:01:20;7.80;;;4.70;;
33760;SDS011;20084;47.912;19.044;2023-04-06T02:03:46;6.30;;;3.90;;
33760;SDS011;20084;47.912;19.044;2023-04-06T02:06:11;6.78;;;4.80;;
33760;SDS011;20084;47.912;19.044;2023-04-06T02:08:37;7.10;;;4.85;;
33760;SDS011;20084;47.912;19.044;2023-04-06T02:11:03;7.40;;;5.05;;
33760;SDS011;20084;47.912;19.044;2023-04-06T02:13:28;5.05;;;3.42;;
33760;SDS011;20084;47.912;19.044;2023-04-06T02:15:54;8.55;;;4.20;;
33760;SDS011;20084;47.912;19.044;2023-04-06T02:18:20;6.80;;;4.18;;
33760;SDS011;20084;47.912;19.044;2023-04-06T02:20:46;7.22;;;4.03;;
33760;SDS011;20084;47.912;19.044;2023-04-06T02:23:12;5.25;;;3.78;;
33760;SDS011;20084;47.912;19.044;2023-04-06T02:25:37;5.95;;;3.60;;
33760;SDS011;20084;47.912;19.044;2023-04-06T02:28:03;7.03;;;3.92;;
33760;SDS011;20084;47.912;19.044;2023-04-06T02:30:29;5.97;;;4.03;;
33760;SDS011;20084;47.912;19.044;2023-04-06T02:32:56;7.53;;;4.20;;
33760;SDS011;20084;47.912;19.044;2023-04-06T02:35:22;9.02;;;5.35;;
33760;SDS011;20084;47.912;19.044;2023-04-06T02:37:47;8.70;;;5.00;;
33760;SDS011;20084;47.912;19.044;2023-04-06T02:40:13;11.98;;;6.38;;
33760;SDS011;20084;47.912;19.044;2023-04-06T02:42:39;5.68;;;4.25;;
33760;SDS011;20084;47.912;19.044;2023-04-06T02:45:05;5.57;;;3.38;;
33760;SDS011;20084;47.912;19.044;2023-04-06T02:47:31;7.03;;;4.45;;
33760;SDS011;20084;47.912;19.044;2023-04-06T02:49:57;11.20;;;6.57;;
33760;SDS011;20084;47.912;19.044;2023-04-06T02:52:23;22.55;;;10.98;;
33760;SDS011;20084;47.912;19.044;2023-04-06T02:54:49;8.35;;;5.53;;
33760;SDS011;20084;47.912;19.044;2023-04-06T02:57:16;7.68;;;5.45;;
33760;SDS011;20084;47.912;19.044;2023-04-06T02:59:41;6.55;;;4.35;;
33760;SDS011;20084;47.912;19.044;2023-04-06T03:02:07;5.03;;;3.38;;
33760;SDS011;20084;47.912;19.044;2023-04-06T03:04:33;7.40;;;4.10;;
33760;SDS011;20084;47.912;19.044;2023-04-06T03:06:58;6.43;;;4.18;;
33760;SDS011;20084;47.912;19.044;2023-04-06T03:09:24;9.88;;;4.80;;
33760;SDS011;20084;47.912;19.044;2023-04-06T03:11:49;10.40;;;5.70;;
33760;SDS011;20084;47.912;19.044;2023-04-06T03:14:15;33.95;;;16.08;;
33760;SDS011;20084;47.912;19.044;2023-04-06T03:16:42;10.35;;;6.38;;
33760;SDS011;20084;47.912;19.044;2023-04-06T03:19:08;34.70;;;17.05;;
33760;SDS011;20084;47.912;19.044;2023-04-06T03:21:34;30.75;;;15.50;;
33760;SDS011;20084;47.912;19.044;2023-04-06T03:24:00;7.93;;;5.05;;
33760;SDS011;20084;47.912;19.044;2023-04-06T03:26:26;5.63;;;3.90;;
33760;SDS011;20084;47.912;19.044;2023-04-06T03:28:51;8.32;;;5.10;;
33760;SDS011;20084;47.912;19.044;2023-04-06T03:31:17;10.73;;;5.70;;
33760;SDS011;20084;47.912;19.044;2023-04-06T03:33:42;8.55;;;5.28;;
33760;SDS011;20084;47.912;19.044;2023-04-06T03:36:08;8.50;;;4.65;;
33760;SDS011;20084;47.912;19.044;2023-04-06T03:38:34;7.13;;;3.80;;
33760;SDS011;20084;47.912;19.044;2023-04-06T03:40:59;5.70;;;3.97;;
33760;SDS011;20084;47.912;19.044;2023-04-06T03:43:25;8.32;;;5.32;;
33760;SDS011;20084;47.912;19.044;2023-04-06T03:45:50;12.50;;;6.55;;
33760;SDS011;20084;47.912;19.044;2023-04-06T03:48:16;12.85;;;8.10;;
33760;SDS011;20084;47.912;19.044;2023-04-06T03:50:42;14.15;;;8.05;;
33760;SDS011;20084;47.912;19.044;2023-04-06T03:53:07;16.45;;;9.00;;
33760;SDS011;20084;47.912;19.044;2023-04-06T03:55:33;18.15;;;9.27;;
33760;SDS011;20084;47.912;19.044;2023-04-06T03:57:59;13.55;;;7.05;;
33760;SDS011;20084;47.912;19.044;2023-04-06T04:00:25;63.35;;;32.40;;
33760;SDS011;20084;47.912;19.044;2023-04-06T04:02:51;63.90;;;30.38;;
33760;SDS011;20084;47.912;19.044;2023-04-06T04:05:17;54.63;;;28.25;;
33760;SDS011;20084;47.912;19.044;2023-04-06T04:07:42;47.58;;;24.65;;
33760;SDS011;20084;47.912;19.044;2023-04-06T04:10:08;43.47;;;23.55;;
33760;SDS011;20084;47.912;19.044;2023-04-06T04:12:34;42.45;;;22.33;;
33760;SDS011;20084;47.912;19.044;2023-04-06T04:15:00;41.38;;;19.75;;
33760;SDS011;20084;47.912;19.044;2023-04-06T04:17:25;39.85;;;18.92;;
33760;SDS011;20084;47.912;19.044;2023-04-06T04:19:51;22.02;;;13.02;;
33760;SDS011;20084;47.912;19.044;2023-04-06T04:22:16;12.77;;;6.90;;
33760;SDS011;20084;47.912;19.044;2023-04-06T04:24:42;12.90;;;7.45;;
33760;SDS011;20084;47.912;19.044;2023-04-06T04:27:08;18.55;;;9.82;;
33760;SDS011;20084;47.912;19.044;2023-04-06T04:29:34;25.45;;;12.05;;
33760;SDS011;20084;47.912;19.044;2023-04-06T04:31:59;17.08;;;9.48;;
33760;SDS011;20084;47.912;19.044;2023-04-06T04:34:25;30.38;;;16.13;;
33760;SDS011;20084;47.912;19.044;2023-04-06T04:36:51;25.52;;;13.50;;
33760;SDS011;20084;47.912;19.044;2023-04-06T04:39:17;35.95;;;16.83;;
33760;SDS011;20084;47.912;19.044;2023-04-06T04:41:43;32.80;;;17.02;;
33760;SDS011;20084;47.912;19.044;2023-04-06T04:44:08;41.85;;;20.63;;
33760;SDS011;20084;47.912;19.044;2023-04-06T04:46:34;58.25;;;26.75;;
33760;SDS011;20084;47.912;19.044;2023-04-06T04:49:00;47.90;;;22.48;;
33760;SDS011;20084;47.912;19.044;2023-04-06T04:51:25;88.57;;;41.45;;
33760;SDS011;20084;47.912;19.044;2023-04-06T04:53:51;97.63;;;44.17;;
33760;SDS011;20084;47.912;19.044;2023-04-06T04:56:17;78.05;;;37.03;;
33760;SDS011;20084;47.912;19.044;2023-04-06T04:58:42;59.15;;;26.27;;
33760;SDS011;20084;47.912;19.044;2023-04-06T05:01:08;38.10;;;20.73;;
33760;SDS011;20084;47.912;19.044;2023-04-06T05:03:34;32.40;;;17.67;;
33760;SDS011;20084;47.912;19.044;2023-04-06T05:06:00;50.15;;;25.27;;
33760;SDS011;20084;47.912;19.044;2023-04-06T05:08:26;28.20;;;14.52;;
33760;SDS011;20084;47.912;19.044;2023-04-06T05:10:52;28.33;;;15.15;;
33760;SDS011;20084;47.912;19.044;2023-04-06T05:13:17;31.65;;;16.35;;
33760;SDS011;20084;47.912;19.044;2023-04-06T05:15:43;28.08;;;16.15;;
33760;SDS011;20084;47.912;19.044;2023-04-06T05:18:09;34.05;;;17.52;;
33760;SDS011;20084;47.912;19.044;2023-04-06T05:20:36;48.90;;;22.27;;
33760;SDS011;20084;47.912;19.044;2023-04-06T05:23:02;50.33;;;23.00;;
33760;SDS011;20084;47.912;19.044;2023-04-06T05:25:28;112.90;;;47.65;;
33760;SDS011;20084;47.912;19.044;2023-04-06T05:27:53;117.18;;;50.47;;
33760;SDS011;20084;47.912;19.044;2023-04-06T05:30:20;122.80;;;48.22;;
33760;SDS011;20084;47.912;19.044;2023-04-06T05:32:46;93.15;;;36.42;;
33760;SDS011;20084;47.912;19.044;2023-04-06T05:35:12;162.68;;;54.40;;
33760;SDS011;20084;47.912;19.044;2023-04-06T05:37:38;93.20;;;36.20;;
33760;SDS011;20084;47.912;19.044;2023-04-06T05:40:04;96.68;;;39.17;;
33760;SDS011;20084;47.912;19.044;2023-04-06T05:42:49;78.85;;;31.75;;
33760;SDS011;20084;47.912;19.044;2023-04-06T05:45:15;47.00;;;18.85;;
33760;SDS011;20084;47.912;19.044;2023-04-06T05:47:43;55.20;;;23.60;;
33760;SDS011;20084;47.912;19.044;2023-04-06T05:50:10;60.33;;;25.17;;
33760;SDS011;20084;47.912;19.044;2023-04-06T05:52:37;50.95;;;23.20;;
33760;SDS011;20084;47.912;19.044;2023-04-06T05:55:03;45.13;;;19.52;;
33760;SDS011;20084;47.912;19.044;2023-04-06T05:57:29;51.03;;;21.10;;
33760;SDS011;20084;47.912;19.044;2023-04-06T05:59:55;38.28;;;15.82;;
33760;SDS011;20084;47.912;19.044;2023-04-06T06:02:21;13.48;;;7.40;;
33760;SDS011;20084;47.912;19.044;2023-04-06T06:04:47;11.32;;;6.82;;
33760;SDS011;20084;47.912;19.044;2023-04-06T06:07:13;18.77;;;10.75;;
33760;SDS011;20084;47.912;19.044;2023-04-06T06:09:39;17.35;;;8.40;;
33760;SDS011;20084;47.912;19.044;2023-04-06T06:12:05;17.10;;;8.40;;
33760;SDS011;20084;47.912;19.044;2023-04-06T06:14:31;8.50;;;5.05;;
33760;SDS011;20084;47.912;19.044;2023-04-06T06:16:56;7.15;;;4.32;;
33760;SDS011;20084;47.912;19.044;2023-04-06T06:19:22;7.60;;;3.10;;
33760;SDS011;20084;47.912;19.044;2023-04-06T06:21:48;7.18;;;3.72;;
33760;SDS011;20084;47.912;19.044;2023-04-06T06:24:14;8.32;;;3.60;;
33760;SDS011;20084;47.912;19.044;2023-04-06T06:26:40;5.50;;;4.03;;
33760;SDS011;20084;47.912;19.044;2023-04-06T06:29:06;4.65;;;3.35;;
33760;SDS011;20084;47.912;19.044;2023-04-06T06:31:32;6.78;;;3.70;;
33760;SDS011;20084;47.912;19.044;2023-04-06T06:33:58;7.35;;;4.15;;
33760;SDS011;20084;47.912;19.044;2023-04-06T06:36:23;8.50;;;4.43;;
33760;SDS011;20084;47.912;19.044;2023-04-06T06:38:50;5.63;;;3.10;;
33760;SDS011;20084;47.912;19.044;2023-04-06T06:41:16;11.57;;;3.75;;
33760;SDS011;20084;47.912;19.044;2023-04-06T06:43:42;5.38;;;3.40;;
33760;SDS011;20084;47.912;19.044;2023-04-06T06:46:08;4.00;;;3.13;;
33760;SDS011;20084;47.912;19.044;2023-04-06T06:48:34;6.10;;;3.92;;
33760;SDS011;20084;47.912;19.044;2023-04-06T06:50:59;7.03;;;3.92;;
33760;SDS011;20084;47.912;19.044;2023-04-06T06:53:25;9.18;;;3.53;;
33760;SDS011;20084;47.912;19.044;2023-04-06T06:55:51;6.70;;;4.00;;
33760;SDS011;20084;47.912;19.044;2023-04-06T06:58:19;5.15;;;3.35;;
33760;SDS011;20084;47.912;19.044;2023-04-06T07:00:45;8.02;;;3.72;;
33760;SDS011;20084;47.912;19.044;2023-04-06T07:03:11;5.85;;;3.55;;
33760;SDS011;20084;47.912;19.044;2023-04-06T07:05:37;9.07;;;3.90;;
33760;SDS011;20084;47.912;19.044;2023-04-06T07:08:03;6.88;;;4.38;;
33760;SDS011;20084;47.912;19.044;2023-04-06T07:10:28;4.65;;;3.22;;
33760;SDS011;20084;47.912;19.044;2023-04-06T07:12:54;6.15;;;3.50;;
33760;SDS011;20084;47.912;19.044;2023-04-06T07:15:20;6.18;;;3.90;;
33760;SDS011;20084;47.912;19.044;2023-04-06T07:17:46;6.60;;;3.83;;
33760;SDS011;20084;47.912;19.044;2023-04-06T07:20:12;5.47;;;3.67;;
33760;SDS011;20084;47.912;19.044;2023-04-06T07:22:38;4.65;;;3.25;;
33760;SDS011;20084;47.912;19.044;2023-04-06T07:25:04;6.90;;;3.75;;
33760;SDS011;20084;47.912;19.044;2023-04-06T07:27:30;5.65;;;3.95;;
33760;SDS011;20084;47.912;19.044;2023-04-06T07:29:56;6.30;;;3.35;;
33760;SDS011;20084;47.912;19.044;2023-04-06T07:32:22;6.80;;;3.63;;
33760;SDS011;20084;47.912;19.044;2023-04-06T07:34:47;6.30;;;3.25;;
33760;SDS011;20084;47.912;19.044;2023-04-06T07:37:13;5.20;;;3.30;;
33760;SDS011;20084;47.912;19.044;2023-04-06T07:39:38;4.15;;;3.05;;
33760;SDS011;20084;47.912;19.044;2023-04-06T07:42:05;5.68;;;3.22;;
33760;SDS011;20084;47.912;19.044;2023-04-06T07:44:31;6.38;;;3.72;;
33760;SDS011;20084;47.912;19.044;2023-04-06T07:46:56;6.25;;;4.10;;
33760;SDS011;20084;47.912;19.044;2023-04-06T07:49:22;5.30;;;3.30;;
33760;SDS011;20084;47.912;19.044;2023-04-06T07:51:48;5.18;;;3.70;;
33760;SDS011;20084;47.912;19.044;2023-04-06T07:54:13;7.63;;;4.40;;
33760;SDS011;20084;47.912;19.044;2023-04-06T07:56:39;7.65;;;3.53;;
33760;SDS011;20084;47.912;19.044;2023-04-06T07:59:05;6.90;;;3.72;;
33760;SDS011;20084;47.912;19.044;2023-04-06T08:01:31;6.78;;;3.85;;
33760;SDS011;20084;47.912;19.044;2023-04-06T08:03:56;7.18;;;3.80;;
33760;SDS011;20084;47.912;19.044;2023-04-06T08:06:22;8.60;;;4.43;;
33760;SDS011;20084;47.912;19.044;2023-04-06T08:08:48;7.18;;;3.80;;
33760;SDS011;20084;47.912;19.044;2023-04-06T08:11:14;6.65;;;3.63;;
33760;SDS011;20084;47.912;19.044;2023-04-06T08:13:39;7.15;;;4.70;;
33760;SDS011;20084;47.912;19.044;2023-04-06T08:16:05;6.43;;;3.72;;
33760;SDS011;20084;47.912;19.044;2023-04-06T08:18:31;5.35;;;3.60;;
33760;SDS011;20084;47.912;19.044;2023-04-06T08:20:57;5.47;;;3.83;;
33760;SDS011;20084;47.912;19.044;2023-04-06T08:23:22;5.72;;;3.63;;
33760;SDS011;20084;47.912;19.044;2023-04-06T08:25:48;7.40;;;4.22;;
33760;SDS011;20084;47.912;19.044;2023-04-06T08:28:14;6.28;;;3.85;;
33760;SDS011;20084;47.912;19.044;2023-04-06T08:30:40;5.25;;;3.58;;
33760;SDS011;20084;47.912;19.044;2023-04-06T08:33:06;5.50;;;4.20;;
33760;SDS011;20084;47.912;19.044;2023-04-06T08:35:32;8.07;;;4.05;;
33760;SDS011;20084;47.912;19.044;2023-04-06T08:37:58;7.18;;;3.88;;
33760;SDS011;20084;47.912;19.044;2023-04-06T08:40:23;5.25;;;3.80;;
33760;SDS011;20084;47.912;19.044;2023-04-06T08:42:50;7.82;;;4.00;;
33760;SDS011;20084;47.912;19.044;2023-04-06T08:45:19;8.32;;;4.07;;
33760;SDS011;20084;47.912;19.044;2023-04-06T08:47:46;5.55;;;3.53;;
33760;SDS011;20084;47.912;19.044;2023-04-06T08:50:16;7.55;;;5.25;;
33760;SDS011;20084;47.912;19.044;2023-04-06T08:52:43;6.55;;;4.55;;
33760;SDS011;20084;47.912;19.044;2023-04-06T08:55:11;5.80;;;3.75;;
33760;SDS011;20084;47.912;19.044;2023-04-06T08:57:36;8.07;;;3.63;;
33760;SDS011;20084;47.912;19.044;2023-04-06T09:00:04;6.45;;;3.60;;
33760;SDS011;20084;47.912;19.044;2023-04-06T09:02:33;7.95;;;6.20;;
33760;SDS011;20084;47.912;19.044;2023-04-06T09:05:02;5.78;;;4.00;;
33760;SDS011;20084;47.912;19.044;2023-04-06T09:07:28;4.90;;;3.10;;
33760;SDS011;20084;47.912;19.044;2023-04-06T09:09:54;5.88;;;4.40;;
33760;SDS011;20084;47.912;19.044;2023-04-06T09:12:26;5.38;;;3.35;;
33760;SDS011;20084;47.912;19.044;2023-04-06T09:14:53;4.22;;;3.28;;
33760;SDS011;20084;47.912;19.044;2023-04-06T09:17:24;5.90;;;3.53;;
33760;SDS011;20084;47.912;19.044;2023-04-06T09:19:54;5.90;;;3.90;;
33760;SDS011;20084;47.912;19.044;2023-04-06T09:22:21;4.32;;;3.00;;
33760;SDS011;20084;47.912;19.044;2023-04-06T09:27:15;5.95;;;3.88;;
33760;SDS011;20084;47.912;19.044;2023-04-06T09:29:41;6.65;;;3.55;;
33760;SDS011;20084;47.912;19.044;2023-04-06T09:32:09;5.55;;;4.05;;
33760;SDS011;20084;47.912;19.044;2023-04-06T09:34:36;5.75;;;3.58;;
33760;SDS011;20084;47.912;19.044;2023-04-06T09:37:15;6.45;;;3.60;;
33760;SDS011;20084;47.912;19.044;2023-04-06T09:39:42;5.85;;;3.42;;
33760;SDS011;20084;47.912;19.044;2023-04-06T09:42:08;6.22;;;3.30;;
33760;SDS011;20084;47.912;19.044;2023-04-06T09:44:34;7.00;;;3.35;;
33760;SDS011;20084;47.912;19.044;2023-04-06T09:47:00;6.10;;;3.53;;
33760;SDS011;20084;47.912;19.044;2023-04-06T09:49:30;4.05;;;3.15;;
33760;SDS011;20084;47.912;19.044;2023-04-06T09:51:59;6.07;;;3.78;;
33760;SDS011;20084;47.912;19.044;2023-04-06T09:54:31;5.05;;;3.55;;
33760;SDS011;20084;47.912;19.044;2023-04-06T09:57:05;6.00;;;3.88;;
33760;SDS011;20084;47.912;19.044;2023-04-06T10:05:13;7.60;;;3.55;;
33760;SDS011;20084;47.912;19.044;2023-04-06T10:07:41;8.93;;;3.60;;
33760;SDS011;20084;47.912;19.044;2023-04-06T10:10:07;4.90;;;2.88;;
33760;SDS011;20084;47.912;19.044;2023-04-06T10:12:34;9.65;;;3.78;;
33760;SDS011;20084;47.912;19.044;2023-04-06T10:15:03;6.68;;;4.13;;
33760;SDS011;20084;47.912;19.044;2023-04-06T10:17:28;8.25;;;4.20;;
33760;SDS011;20084;47.912;19.044;2023-04-06T10:20:04;7.10;;;4.38;;
33760;SDS011;20084;47.912;19.044;2023-04-06T10:22:56;7.07;;;4.17;;
33760;SDS011;20084;47.912;19.044;2023-04-06T10:25:27;5.70;;;3.22;;
33760;SDS011;20084;47.912;19.044;2023-04-06T10:28:14;5.25;;;4.40;;
33760;SDS011;20084;47.912;19.044;2023-04-06T10:30:43;3.03;;;2.67;;
33760;SDS011;20084;47.912;19.044;2023-04-06T10:33:13;8.40;;;3.42;;
33760;SDS011;20084;47.912;19.044;2023-04-06T10:35:39;4.63;;;2.60;;
33760;SDS011;20084;47.912;19.044;2023-04-06T10:38:05;6.30;;;2.90;;
33760;SDS011;20084;47.912;19.044;2023-04-06T10:40:31;3.63;;;2.72;;
33760;SDS011;20084;47.912;19.044;2023-04-06T10:43:06;3.65;;;2.70;;
33760;SDS011;20084;47.912;19.044;2023-04-06T10:45:37;7.80;;;3.03;;
33760;SDS011;20084;47.912;19.044;2023-04-06T10:50:52;5.38;;;2.90;;
33760;SDS011;20084;47.912;19.044;2023-04-06T10:53:21;4.45;;;2.80;;
33760;SDS011;20084;47.912;19.044;2023-04-06T10:55:52;5.47;;;3.17;;
33760;SDS011;20084;47.912;19.044;2023-04-06T10:58:24;4.65;;;3.25;;
33760;SDS011;20084;47.912;19.044;2023-04-06T11:00:51;4.55;;;2.55;;
33760;SDS011;20084;47.912;19.044;2023-04-06T11:03:17;4.75;;;2.65;;
33760;SDS011;20084;47.912;19.044;2023-04-06T11:05:44;6.35;;;2.85;;
33760;SDS011;20084;47.912;19.044;2023-04-06T11:08:32;4.30;;;3.05;;
33760;SDS011;20084;47.912;19.044;2023-04-06T11:16:11;4.53;;;3.10;;
33760;SDS011;20084;47.912;19.044;2023-04-06T11:21:17;3.67;;;3.03;;
33760;SDS011;20084;47.912;19.044;2023-04-06T11:24:09;3.30;;;2.72;;
33760;SDS011;20084;47.912;19.044;2023-04-06T11:26:47;3.80;;;2.70;;
33760;SDS011;20084;47.912;19.044;2023-04-06T11:29:17;4.82;;;2.55;;
33760;SDS011;20084;47.912;19.044;2023-04-06T11:32:05;3.40;;;2.20;;
33760;SDS011;20084;47.912;19.044;2023-04-06T11:34:37;3.45;;;2.50;;
33760;SDS011;20084;47.912;19.044;2023-04-06T11:37:10;4.82;;;2.78;;
33760;SDS011;20084;47.912;19.044;2023-04-06T11:39:37;4.32;;;2.78;;
33760;SDS011;20084;47.912;19.044;2023-04-06T11:42:05;3.42;;;2.55;;
33760;SDS011;20084;47.912;19.044;2023-04-06T11:44:32;3.65;;;2.63;;
33760;SDS011;20084;47.912;19.044;2023-04-06T11:46:59;5.53;;;2.40;;
33760;SDS011;20084;47.912;19.044;2023-04-06T11:49:29;3.80;;;2.75;;
33760;SDS011;20084;47.912;19.044;2023-04-06T11:51:56;2.90;;;2.60;;
33760;SDS011;20084;47.912;19.044;2023-04-06T11:54:29;6.50;;;2.40;;
33760;SDS011;20084;47.912;19.044;2023-04-06T11:56:55;4.03;;;2.55;;
33760;SDS011;20084;47.912;19.044;2023-04-06T11:59:21;3.45;;;2.50;;
33760;SDS011;20084;47.912;19.044;2023-04-06T12:01:47;3.95;;;2.30;;
33760;SDS011;20084;47.912;19.044;2023-04-06T12:04:13;3.35;;;2.40;;
33760;SDS011;20084;47.912;19.044;2023-04-06T12:06:39;3.00;;;2.20;;
33760;SDS011;20084;47.912;19.044;2023-04-06T12:09:05;4.80;;;2.75;;
33760;SDS011;20084;47.912;19.044;2023-04-06T12:11:31;4.95;;;2.90;;
33760;SDS011;20084;47.912;19.044;2023-04-06T12:13:56;3.55;;;2.28;;
33760;SDS011;20084;47.912;19.044;2023-04-06T12:16:24;5.05;;;2.78;;
33760;SDS011;20084;47.912;19.044;2023-04-06T12:18:50;3.72;;;2.47;;
33760;SDS011;20084;47.912;19.044;2023-04-06T12:21:16;2.97;;;2.25;;
33760;SDS011;20084;47.912;19.044;2023-04-06T12:23:42;2.95;;;2.03;;
33760;SDS011;20084;47.912;19.044;2023-04-06T12:26:07;5.38;;;2.08;;
33760;SDS011;20084;47.912;19.044;2023-04-06T12:28:33;3.22;;;2.15;;
33760;SDS011;20084;47.912;19.044;2023-04-06T12:30:59;5.45;;;2.28;;
33760;SDS011;20084;47.912;19.044;2023-04-06T12:33:25;4.32;;;2.00;;
33760;SDS011;20084;47.912;19.044;2023-04-06T12:35:50;3.00;;;1.92;;
33760;SDS011;20084;47.912;19.044;2023-04-06T12:38:16;2.80;;;2.00;;
33760;SDS011;20084;47.912;19.044;2023-04-06T12:40:42;3.80;;;2.13;;
33760;SDS011;20084;47.912;19.044;2023-04-06T12:43:08;3.65;;;2.13;;
33760;SDS011;20084;47.912;19.044;2023-04-06T12:45:33;6.70;;;2.13;;
33760;SDS011;20084;47.912;19.044;2023-04-06T12:47:59;3.30;;;2.17;;
33760;SDS011;20084;47.912;19.044;2023-04-06T12:50:25;2.80;;;2.05;;
33760;SDS011;20084;47.912;19.044;2023-04-06T12:52:51;2.78;;;2.17;;
33760;SDS011;20084;47.912;19.044;2023-04-06T12:55:17;3.33;;;1.92;;
33760;SDS011;20084;47.912;19.044;2023-04-06T12:57:42;3.80;;;2.20;;
33760;SDS011;20084;47.912;19.044;2023-04-06T13:00:10;7.25;;;2.08;;
33760;SDS011;20084;47.912;19.044;2023-04-06T13:02:36;3.60;;;2.17;;
33760;SDS011;20084;47.912;19.044;2023-04-06T13:05:02;3.22;;;2.05;;
33760;SDS011;20084;47.912;19.044;2023-04-06T13:07:27;4.47;;;2.50;;
33760;SDS011;20084;47.912;19.044;2023-04-06T13:09:53;4.75;;;2.28;;
33760;SDS011;20084;47.912;19.044;2023-04-06T13:12:19;2.40;;;2.08;;
33760;SDS011;20084;47.912;19.044;2023-04-06T13:14:45;4.30;;;2.22;;
33760;SDS011;20084;47.912;19.044;2023-04-06T13:17:15;2.97;;;2.10;;
33760;SDS011;20084;47.912;19.044;2023-04-06T13:19:41;3.60;;;2.10;;
33760;SDS011;20084;47.912;19.044;2023-04-06T13:22:07;2.35;;;2.00;;
33760;SDS011;20084;47.912;19.044;2023-04-06T13:24:32;11.32;;;8.82;;
33760;SDS011;20084;47.912;19.044;2023-04-06T13:26:59;4.10;;;2.70;;
33760;SDS011;20084;47.912;19.044;2023-04-06T13:29:25;2.90;;;2.13;;
33760;SDS011;20084;47.912;19.044;2023-04-06T13:31:52;3.33;;;2.38;;
33760;SDS011;20084;47.912;19.044;2023-04-06T13:34:17;3.42;;;2.38;;
33760;SDS011;20084;47.912;19.044;2023-04-06T13:36:43;3.83;;;2.30;;
33760;SDS011;20084;47.912;19.044;2023-04-06T13:39:09;3.45;;;2.17;;
33760;SDS011;20084;47.912;19.044;2023-04-06T13:41:34;3.17;;;2.35;;
33760;SDS011;20084;47.912;19.044;2023-04-06T13:44:00;3.88;;;2.67;;
33760;SDS011;20084;47.912;19.044;2023-04-06T13:46:26;5.95;;;2.50;;
33760;SDS011;20084;47.912;19.044;2023-04-06T13:48:52;2.65;;;2.15;;
33760;SDS011;20084;47.912;19.044;2023-04-06T13:51:17;3.63;;;2.38;;
33760;SDS011;20084;47.912;19.044;2023-04-06T13:53:43;4.15;;;2.58;;
33760;SDS011;20084;47.912;19.044;2023-04-06T13:56:09;10.57;;;7.28;;
33760;SDS011;20084;47.912;19.044;2023-04-06T13:58:35;12.05;;;9.93;;
33760;SDS011;20084;47.912;19.044;2023-04-06T14:01:07;10.52;;;8.48;;
33760;SDS011;20084;47.912;19.044;2023-04-06T14:03:34;3.55;;;2.85;;
33760;SDS011;20084;47.912;19.044;2023-04-06T14:06:01;3.75;;;2.60;;
33760;SDS011;20084;47.912;19.044;2023-04-06T14:08:35;2.72;;;2.50;;
33760;SDS011;20084;47.912;19.044;2023-04-06T14:11:00;3.42;;;2.50;;
33760;SDS011;20084;47.912;19.044;2023-04-06T14:13:26;3.10;;;2.45;;
33760;SDS011;20084;47.912;19.044;2023-04-06T14:15:53;4.97;;;2.53;;
33760;SDS011;20084;47.912;19.044;2023-04-06T14:18:19;3.05;;;2.55;;
33760;SDS011;20084;47.912;19.044;2023-04-06T14:20:44;3.63;;;2.63;;
33760;SDS011;20084;47.912;19.044;2023-04-06T14:23:10;4.05;;;2.65;;
33760;SDS011;20084;47.912;19.044;2023-04-06T14:25:36;3.47;;;2.40;;
33760;SDS011;20084;47.912;19.044;2023-04-06T14:28:01;4.53;;;3.05;;
33760;SDS011;20084;47.912;19.044;2023-04-06T14:30:29;4.20;;;2.97;;
33760;SDS011;20084;47.912;19.044;2023-04-06T14:32:58;6.00;;;3.15;;
33760;SDS011;20084;47.912;19.044;2023-04-06T14:35:24;24.15;;;8.80;;
33760;SDS011;20084;47.912;19.044;2023-04-06T14:37:50;5.88;;;3.78;;
33760;SDS011;20084;47.912;19.044;2023-04-06T14:40:16;4.20;;;2.88;;
33760;SDS011;20084;47.912;19.044;2023-04-06T14:42:42;3.75;;;3.25;;
33760;SDS011;20084;47.912;19.044;2023-04-06T14:45:07;7.43;;;3.05;;